กรุงเทพมหานคร, ประเทศไทย

01:49 PM ICT วัน มกราคม 17, 2017 (GMT +0700)
Soi Ekkarat 15/2 | | Change Station

Elev 19 ft 13.96 °N, 100.60 °E | Updated 3 minutes ago

มีเมฆคลุมเป็นส่วนใหญ่
มีเมฆคลุมเป็นส่วนใหญ่
84.4 ฟาเรนไฮน์
Feels Like 94 ฟาเรนไฮน์
N
1.2
ลม ความผันแปร ลม from ทางทิศใต้และทิศตะวันตกเฉียงใต้
Gusts 3.1 mph

วันนี้
High -- | Low -- ฟาเรนไฮน์
--% Chance of Precip.
Yesterday
High -- | Low -- ฟาเรนไฮน์
Precip. -- นิ้ว
ความดัน 29.86 นิ้ว
ทัศนวิสัย 6.2 ไมล์
เมฆ Few 2000 ft
มีเมฆคลุมเป็นบางส่วน 5000 ft
มีเมฆคลุมเป็นส่วนใหญ่ 10000 ft
ดัชนีความร้อน 94 ฟาเรนไฮน์
อุณหภูมิที่อากาศอาจจับตัวเป็นหยาดน้ำค้าง 76 ฟาเรนไฮน์
ความชื้น 76%
Rainfall 0.00 นิ้ว
Snow Depth Not available.
6:45 AM 6:09 PM
ข้างแรม, 75% visible
METAR VTBS 170630Z 06008KT 030V100 9999 FEW020 SCT050 BKN100 29/21 Q1011 NOSIG
ความดัน 29.86 นิ้ว
ทัศนวิสัย 6.2 ไมล์
เมฆ Few 2000 ft
มีเมฆคลุมเป็นบางส่วน 5000 ft
มีเมฆคลุมเป็นส่วนใหญ่ 10000 ft
ดัชนีความร้อน 94 ฟาเรนไฮน์
อุณหภูมิที่อากาศอาจจับตัวเป็นหยาดน้ำค้าง 76 ฟาเรนไฮน์
ความชื้น 76%
Rainfall 0.00 นิ้ว
Snow Depth Not available.
6:45 AM 6:09 PM
ข้างแรม, 75% visible
METAR VTBS 170630Z 06008KT 030V100 9999 FEW020 SCT050 BKN100 29/21 Q1011 NOSIG

Get Your Daily Forecast Email!

Thanks for signing up!

Be on the lookout for a verification email in your inbox.

You'll start receiving the daily forecast at 8 AM.

×

10-Day Weather Forecast

No radar image for this location.
×

Almanac

ดาราศาสตร์

Jan. 17, 2017 Rise Set
Actual Time
Civil Twilight
Nautical Twilight
Astronomical Twilight
Moon
Length Of Visible Light
ความยาวของวัน
Tomorrow will be .
, % of the Moon is Illuminated

Today's Extremes

Country Highs Country Lows

Community

WunderPhotos

Upload Photos

1,962,540 photos uploaded!

WunderBlog® & News

Nearby

Air Quality

  Air Quality AQ Index Pollutant
Not available.

Snow Depth

Station Depth Elevation

Earthquake Activity

City Distance Mag. Time & Date
Minimum magnitude displayed is 2.5.

Coastal Water Temperatures

สถานที่ อุณหภูมิ

Stations

Nearby Weather Stations

Station Location Temp ลมหนาว อุณหภูมิที่อากาศอาจจับตัวเป็นหยาดน้ำค้าง ความชื้น ลม Precip. Elev ปรับปรุงล่าสุด Type